Zabrze, Poland
Current Conditions -  °F | °C
As of 10:00 AM on Friday 24 Oct 2014 (Local Time) from EPKT Reporting Station
Broken Clouds Broken Clouds  
Wind Chill: 29°   Ceiling: 800
Heat Index: 36°   Visibility: 4mi
Dew Point: 34°   Wind: 9mph
Humidity: 93%   Direction: 70°ENE
Pressure: 30.27"   Gusts: NA
Location:  50.3°N, 18.78°E
Report Text: EPKT 240800Z 07008KT 7000 SCT006 BKN008 02/01 Q1025
Loading
Personal Weather Stations






























Interactive Weather Map
Tropical Storm Tracking
New forecast layout! Learn more

10-Day Weather Forecast

Advertisements
Track Severe Weather on mobile